sensor_id;sensor_type;location;lat;lon;timestamp;pressure;altitude;pressure_sealevel;temperature
76394;BMP180;65216;51.090;-115.352;2023-07-16T00:01:18;87131.60;;;23.00
76394;BMP180;65216;51.090;-115.352;2023-07-16T00:03:45;87132.40;;;23.06
76394;BMP180;65216;51.090;-115.352;2023-07-16T00:06:18;87138.40;;;23.10
76394;BMP180;65216;51.090;-115.352;2023-07-16T00:08:48;87131.40;;;23.10
76394;BMP180;65216;51.090;-115.352;2023-07-16T00:11:14;87143.00;;;23.10
76394;BMP180;65216;51.090;-115.352;2023-07-16T00:13:41;87131.40;;;23.10
76394;BMP180;65216;51.090;-115.352;2023-07-16T00:16:14;87128.80;;;23.10
76394;BMP180;65216;51.090;-115.352;2023-07-16T00:18:45;87134.20;;;23.20
76394;BMP180;65216;51.090;-115.352;2023-07-16T00:21:12;87132.00;;;23.20
76394;BMP180;65216;51.090;-115.352;2023-07-16T00:23:41;87129.00;;;23.20
76394;BMP180;65216;51.090;-115.352;2023-07-16T00:26:08;87132.00;;;23.20
76394;BMP180;65216;51.090;-115.352;2023-07-16T00:28:35;87133.20;;;23.20
76394;BMP180;65216;51.090;-115.352;2023-07-16T00:31:04;87140.20;;;23.20
76394;BMP180;65216;51.090;-115.352;2023-07-16T00:33:31;87130.40;;;23.20
76394;BMP180;65216;51.090;-115.352;2023-07-16T00:35:58;87135.60;;;23.20
76394;BMP180;65216;51.090;-115.352;2023-07-16T00:38:25;87134.40;;;23.22
76394;BMP180;65216;51.090;-115.352;2023-07-16T00:40:52;87132.60;;;23.26
76394;BMP180;65216;51.090;-115.352;2023-07-16T00:43:19;87124.00;;;23.30
76394;BMP180;65216;51.090;-115.352;2023-07-16T00:45:46;87126.00;;;23.30
76394;BMP180;65216;51.090;-115.352;2023-07-16T00:48:14;87123.00;;;23.30
76394;BMP180;65216;51.090;-115.352;2023-07-16T00:50:41;87131.80;;;23.30
76394;BMP180;65216;51.090;-115.352;2023-07-16T00:53:10;87128.20;;;23.30
76394;BMP180;65216;51.090;-115.352;2023-07-16T00:55:40;87125.60;;;23.30
76394;BMP180;65216;51.090;-115.352;2023-07-16T00:58:09;87126.80;;;23.30
76394;BMP180;65216;51.090;-115.352;2023-07-16T01:00:39;87122.80;;;23.30
76394;BMP180;65216;51.090;-115.352;2023-07-16T01:03:10;87128.20;;;23.30
76394;BMP180;65216;51.090;-115.352;2023-07-16T01:09:03;87116.20;;;23.20
76394;BMP180;65216;51.090;-115.352;2023-07-16T01:11:36;87123.60;;;23.20
76394;BMP180;65216;51.090;-115.352;2023-07-16T01:14:05;87123.60;;;23.20
76394;BMP180;65216;51.090;-115.352;2023-07-16T01:16:36;87127.40;;;23.20
76394;BMP180;65216;51.090;-115.352;2023-07-16T01:19:03;87120.60;;;23.20
76394;BMP180;65216;51.090;-115.352;2023-07-16T01:21:46;87111.40;;;23.20
76394;BMP180;65216;51.090;-115.352;2023-07-16T01:30:30;87111.00;;;23.20
76394;BMP180;65216;51.090;-115.352;2023-07-16T01:33:02;87106.40;;;23.20
76394;BMP180;65216;51.090;-115.352;2023-07-16T01:35:30;87128.40;;;23.20
76394;BMP180;65216;51.090;-115.352;2023-07-16T01:38:00;87115.80;;;23.12
76394;BMP180;65216;51.090;-115.352;2023-07-16T01:40:27;87114.40;;;23.10
76394;BMP180;65216;51.090;-115.352;2023-07-16T01:42:56;87103.60;;;23.10
76394;BMP180;65216;51.090;-115.352;2023-07-16T01:45:23;87110.40;;;23.10
76394;BMP180;65216;51.090;-115.352;2023-07-16T01:48:30;87113.00;;;23.10
76394;BMP180;65216;51.090;-115.352;2023-07-16T01:50:57;87114.00;;;23.10
76394;BMP180;65216;51.090;-115.352;2023-07-16T01:53:30;87112.40;;;23.10
76394;BMP180;65216;51.090;-115.352;2023-07-16T01:56:01;87109.40;;;23.10
76394;BMP180;65216;51.090;-115.352;2023-07-16T01:58:28;87108.40;;;23.10
76394;BMP180;65216;51.090;-115.352;2023-07-16T02:00:55;87112.80;;;23.08
76394;BMP180;65216;51.090;-115.352;2023-07-16T02:03:22;87108.80;;;23.10
76394;BMP180;65216;51.090;-115.352;2023-07-16T02:05:50;87120.00;;;23.08
76394;BMP180;65216;51.090;-115.352;2023-07-16T02:08:17;87116.00;;;23.10
76394;BMP180;65216;51.090;-115.352;2023-07-16T02:10:47;87125.40;;;23.04
76394;BMP180;65216;51.090;-115.352;2023-07-16T02:13:14;87128.80;;;23.00
76394;BMP180;65216;51.090;-115.352;2023-07-16T02:15:45;87121.40;;;23.00
76394;BMP180;65216;51.090;-115.352;2023-07-16T02:18:13;87136.40;;;23.00
76394;BMP180;65216;51.090;-115.352;2023-07-16T02:20:40;87149.40;;;23.00
76394;BMP180;65216;51.090;-115.352;2023-07-16T02:23:07;87143.80;;;23.00
76394;BMP180;65216;51.090;-115.352;2023-07-16T02:25:34;87133.00;;;23.00
76394;BMP180;65216;51.090;-115.352;2023-07-16T02:28:01;87140.80;;;23.00
76394;BMP180;65216;51.090;-115.352;2023-07-16T02:30:31;87143.20;;;23.00
76394;BMP180;65216;51.090;-115.352;2023-07-16T02:33:00;87146.60;;;23.00
76394;BMP180;65216;51.090;-115.352;2023-07-16T02:35:27;87133.40;;;23.00
76394;BMP180;65216;51.090;-115.352;2023-07-16T02:37:56;87150.40;;;22.94
76394;BMP180;65216;51.090;-115.352;2023-07-16T02:40:23;87152.20;;;22.90
76394;BMP180;65216;51.090;-115.352;2023-07-16T02:42:49;87159.60;;;22.90
76394;BMP180;65216;51.090;-115.352;2023-07-16T02:45:17;87157.00;;;22.90
76394;BMP180;65216;51.090;-115.352;2023-07-16T02:47:44;87164.40;;;22.90
76394;BMP180;65216;51.090;-115.352;2023-07-16T02:50:11;87174.40;;;22.90
76394;BMP180;65216;51.090;-115.352;2023-07-16T02:52:38;87178.20;;;22.88
76394;BMP180;65216;51.090;-115.352;2023-07-16T02:55:09;87177.40;;;22.80
76394;BMP180;65216;51.090;-115.352;2023-07-16T02:57:35;87171.40;;;22.82
76394;BMP180;65216;51.090;-115.352;2023-07-16T03:00:03;87180.00;;;22.80
76394;BMP180;65216;51.090;-115.352;2023-07-16T03:02:31;87166.40;;;22.80
76394;BMP180;65216;51.090;-115.352;2023-07-16T03:05:01;87176.40;;;22.80
76394;BMP180;65216;51.090;-115.352;2023-07-16T03:07:27;87178.60;;;22.80
76394;BMP180;65216;51.090;-115.352;2023-07-16T03:09:54;87180.80;;;22.78
76394;BMP180;65216;51.090;-115.352;2023-07-16T03:12:21;87178.20;;;22.72
76394;BMP180;65216;51.090;-115.352;2023-07-16T03:14:53;87175.80;;;22.70
76394;BMP180;65216;51.090;-115.352;2023-07-16T03:17:23;87178.20;;;22.70
76394;BMP180;65216;51.090;-115.352;2023-07-16T03:19:53;87186.00;;;22.70
76394;BMP180;65216;51.090;-115.352;2023-07-16T03:22:20;87189.60;;;22.70
76394;BMP180;65216;51.090;-115.352;2023-07-16T03:24:49;87191.20;;;22.70
76394;BMP180;65216;51.090;-115.352;2023-07-16T03:27:19;87190.80;;;22.70
76394;BMP180;65216;51.090;-115.352;2023-07-16T03:29:46;87192.80;;;22.70
76394;BMP180;65216;51.090;-115.352;2023-07-16T03:32:15;87195.00;;;22.60
76394;BMP180;65216;51.090;-115.352;2023-07-16T03:34:42;87199.60;;;22.60
76394;BMP180;65216;51.090;-115.352;2023-07-16T03:37:09;87202.00;;;22.60
76394;BMP180;65216;51.090;-115.352;2023-07-16T03:39:37;87194.40;;;22.60
76394;BMP180;65216;51.090;-115.352;2023-07-16T03:42:04;87195.60;;;22.60
76394;BMP180;65216;51.090;-115.352;2023-07-16T03:44:34;87202.00;;;22.58
76394;BMP180;65216;51.090;-115.352;2023-07-16T03:47:04;87202.00;;;22.50
76394;BMP180;65216;51.090;-115.352;2023-07-16T03:49:33;87212.20;;;22.50
76394;BMP180;65216;51.090;-115.352;2023-07-16T03:52:00;87220.00;;;22.50
76394;BMP180;65216;51.090;-115.352;2023-07-16T03:54:27;87218.80;;;22.50
76394;BMP180;65216;51.090;-115.352;2023-07-16T03:56:55;87218.80;;;22.50
76394;BMP180;65216;51.090;-115.352;2023-07-16T03:59:22;87224.20;;;22.50
76394;BMP180;65216;51.090;-115.352;2023-07-16T04:01:49;87231.20;;;22.50
76394;BMP180;65216;51.090;-115.352;2023-07-16T04:04:16;87232.20;;;22.50
76394;BMP180;65216;51.090;-115.352;2023-07-16T04:06:43;87236.80;;;22.42
76394;BMP180;65216;51.090;-115.352;2023-07-16T04:09:10;87239.40;;;22.40
76394;BMP180;65216;51.090;-115.352;2023-07-16T04:11:36;87230.40;;;22.40
76394;BMP180;65216;51.090;-115.352;2023-07-16T04:14:03;87239.60;;;22.40
76394;BMP180;65216;51.090;-115.352;2023-07-16T04:16:30;87245.80;;;22.40
76394;BMP180;65216;51.090;-115.352;2023-07-16T04:18:57;87251.80;;;22.40
76394;BMP180;65216;51.090;-115.352;2023-07-16T04:21:24;87253.80;;;22.40
76394;BMP180;65216;51.090;-115.352;2023-07-16T04:23:50;87247.00;;;22.40
76394;BMP180;65216;51.090;-115.352;2023-07-16T04:26:17;87256.20;;;22.40
76394;BMP180;65216;51.090;-115.352;2023-07-16T04:28:44;87263.80;;;22.32
76394;BMP180;65216;51.090;-115.352;2023-07-16T04:31:11;87259.00;;;22.30
76394;BMP180;65216;51.090;-115.352;2023-07-16T04:33:38;87255.40;;;22.30
76394;BMP180;65216;51.090;-115.352;2023-07-16T04:36:05;87270.40;;;22.30
76394;BMP180;65216;51.090;-115.352;2023-07-16T04:38:34;87268.20;;;22.30
76394;BMP180;65216;51.090;-115.352;2023-07-16T04:41:01;87271.80;;;22.30
76394;BMP180;65216;51.090;-115.352;2023-07-16T04:43:28;87271.80;;;22.28
76394;BMP180;65216;51.090;-115.352;2023-07-16T04:45:55;87275.80;;;22.28
76394;BMP180;65216;51.090;-115.352;2023-07-16T04:48:22;87278.00;;;22.20
76394;BMP180;65216;51.090;-115.352;2023-07-16T04:50:52;87283.60;;;22.20
76394;BMP180;65216;51.090;-115.352;2023-07-16T04:53:19;87278.60;;;22.20
76394;BMP180;65216;51.090;-115.352;2023-07-16T04:55:51;87273.40;;;22.20
76394;BMP180;65216;51.090;-115.352;2023-07-16T04:58:18;87265.40;;;22.20
76394;BMP180;65216;51.090;-115.352;2023-07-16T05:00:45;87271.80;;;22.20
76394;BMP180;65216;51.090;-115.352;2023-07-16T05:03:14;87277.60;;;22.20
76394;BMP180;65216;51.090;-115.352;2023-07-16T05:05:41;87274.40;;;22.20
76394;BMP180;65216;51.090;-115.352;2023-07-16T05:08:08;87279.60;;;22.20
76394;BMP180;65216;51.090;-115.352;2023-07-16T05:10:35;87278.40;;;22.18
76394;BMP180;65216;51.090;-115.352;2023-07-16T05:13:02;87280.40;;;22.14
76394;BMP180;65216;51.090;-115.352;2023-07-16T05:15:32;87285.80;;;22.10
76394;BMP180;65216;51.090;-115.352;2023-07-16T05:17:59;87283.00;;;22.10
76394;BMP180;65216;51.090;-115.352;2023-07-16T05:20:25;87282.00;;;22.10
76394;BMP180;65216;51.090;-115.352;2023-07-16T05:22:53;87284.40;;;22.10
76394;BMP180;65216;51.090;-115.352;2023-07-16T05:25:19;87289.80;;;22.10
76394;BMP180;65216;51.090;-115.352;2023-07-16T05:27:49;87296.40;;;22.10
76394;BMP180;65216;51.090;-115.352;2023-07-16T05:30:18;87298.20;;;22.10
76394;BMP180;65216;51.090;-115.352;2023-07-16T05:32:45;87297.20;;;22.10
76394;BMP180;65216;51.090;-115.352;2023-07-16T05:35:13;87296.60;;;22.10
76394;BMP180;65216;51.090;-115.352;2023-07-16T05:37:39;87302.60;;;22.10
76394;BMP180;65216;51.090;-115.352;2023-07-16T05:40:07;87307.80;;;22.10
76394;BMP180;65216;51.090;-115.352;2023-07-16T05:42:37;87313.80;;;22.10
76394;BMP180;65216;51.090;-115.352;2023-07-16T05:45:08;87314.00;;;22.10
76394;BMP180;65216;51.090;-115.352;2023-07-16T05:47:35;87318.00;;;22.10
76394;BMP180;65216;51.090;-115.352;2023-07-16T05:50:02;87320.80;;;22.10
76394;BMP180;65216;51.090;-115.352;2023-07-16T05:52:33;87325.20;;;22.10
76394;BMP180;65216;51.090;-115.352;2023-07-16T05:55:00;87325.20;;;22.10
76394;BMP180;65216;51.090;-115.352;2023-07-16T05:57:29;87328.80;;;22.08
76394;BMP180;65216;51.090;-115.352;2023-07-16T05:59:56;87326.20;;;22.00
76394;BMP180;65216;51.090;-115.352;2023-07-16T06:02:26;87328.40;;;22.00
76394;BMP180;65216;51.090;-115.352;2023-07-16T06:04:54;87325.80;;;22.00
76394;BMP180;65216;51.090;-115.352;2023-07-16T06:07:21;87327.00;;;22.00
76394;BMP180;65216;51.090;-115.352;2023-07-16T06:09:51;87327.00;;;22.00
76394;BMP180;65216;51.090;-115.352;2023-07-16T06:12:24;87328.20;;;22.00
76394;BMP180;65216;51.090;-115.352;2023-07-16T06:14:51;87327.40;;;22.00
76394;BMP180;65216;51.090;-115.352;2023-07-16T06:17:18;87331.20;;;22.00
76394;BMP180;65216;51.090;-115.352;2023-07-16T06:19:45;87326.60;;;22.00
76394;BMP180;65216;51.090;-115.352;2023-07-16T06:22:14;87317.20;;;22.00
76394;BMP180;65216;51.090;-115.352;2023-07-16T06:24:41;87322.20;;;21.98
76394;BMP180;65216;51.090;-115.352;2023-07-16T06:27:08;87318.80;;;21.96
76394;BMP180;65216;51.090;-115.352;2023-07-16T06:29:35;87319.80;;;21.96
76394;BMP180;65216;51.090;-115.352;2023-07-16T06:32:02;87321.60;;;21.90
76394;BMP180;65216;51.090;-115.352;2023-07-16T06:34:29;87317.60;;;21.90
76394;BMP180;65216;51.090;-115.352;2023-07-16T06:36:56;87318.80;;;21.90
76394;BMP180;65216;51.090;-115.352;2023-07-16T06:39:23;87314.20;;;21.90
76394;BMP180;65216;51.090;-115.352;2023-07-16T06:41:50;87318.40;;;21.90
76394;BMP180;65216;51.090;-115.352;2023-07-16T06:44:17;87319.80;;;21.90
76394;BMP180;65216;51.090;-115.352;2023-07-16T06:46:44;87315.20;;;21.90
76394;BMP180;65216;51.090;-115.352;2023-07-16T06:49:11;87316.00;;;21.90
76394;BMP180;65216;51.090;-115.352;2023-07-16T06:51:38;87316.60;;;21.90
76394;BMP180;65216;51.090;-115.352;2023-07-16T06:54:04;87320.80;;;21.90
76394;BMP180;65216;51.090;-115.352;2023-07-16T06:56:31;87324.40;;;21.90
76394;BMP180;65216;51.090;-115.352;2023-07-16T06:58:58;87329.20;;;21.90
76394;BMP180;65216;51.090;-115.352;2023-07-16T07:01:25;87328.20;;;21.90
76394;BMP180;65216;51.090;-115.352;2023-07-16T07:03:54;87322.60;;;21.90
76394;BMP180;65216;51.090;-115.352;2023-07-16T07:06:21;87322.80;;;21.90
76394;BMP180;65216;51.090;-115.352;2023-07-16T07:08:48;87326.00;;;21.84
76394;BMP180;65216;51.090;-115.352;2023-07-16T07:11:15;87323.20;;;21.84
76394;BMP180;65216;51.090;-115.352;2023-07-16T07:13:42;87326.20;;;21.80
76394;BMP180;65216;51.090;-115.352;2023-07-16T07:16:09;87325.60;;;21.80
76394;BMP180;65216;51.090;-115.352;2023-07-16T07:18:36;87324.80;;;21.80
76394;BMP180;65216;51.090;-115.352;2023-07-16T07:21:03;87324.20;;;21.80
76394;BMP180;65216;51.090;-115.352;2023-07-16T07:23:30;87331.20;;;21.80
76394;BMP180;65216;51.090;-115.352;2023-07-16T07:25:57;87327.80;;;21.80
76394;BMP180;65216;51.090;-115.352;2023-07-16T07:28:24;87328.00;;;21.80
76394;BMP180;65216;51.090;-115.352;2023-07-16T07:30:50;87333.60;;;21.80
76394;BMP180;65216;51.090;-115.352;2023-07-16T07:33:17;87342.20;;;21.80
76394;BMP180;65216;51.090;-115.352;2023-07-16T07:35:47;87340.00;;;21.80
76394;BMP180;65216;51.090;-115.352;2023-07-16T07:38:14;87332.40;;;21.80
76394;BMP180;65216;51.090;-115.352;2023-07-16T07:40:43;87330.40;;;21.80
76394;BMP180;65216;51.090;-115.352;2023-07-16T07:43:10;87338.80;;;21.80
76394;BMP180;65216;51.090;-115.352;2023-07-16T07:45:40;87337.60;;;21.78
76394;BMP180;65216;51.090;-115.352;2023-07-16T07:48:06;87338.20;;;21.76
76394;BMP180;65216;51.090;-115.352;2023-07-16T07:50:33;87340.00;;;21.76
76394;BMP180;65216;51.090;-115.352;2023-07-16T07:53:00;87344.00;;;21.70
76394;BMP180;65216;51.090;-115.352;2023-07-16T07:55:28;87348.40;;;21.76
76394;BMP180;65216;51.090;-115.352;2023-07-16T07:57:54;87345.60;;;21.70
76394;BMP180;65216;51.090;-115.352;2023-07-16T08:00:22;87349.40;;;21.72
76394;BMP180;65216;51.090;-115.352;2023-07-16T08:02:51;87352.60;;;21.70
76394;BMP180;65216;51.090;-115.352;2023-07-16T08:05:21;87353.00;;;21.70
76394;BMP180;65216;51.090;-115.352;2023-07-16T08:07:48;87350.40;;;21.70
76394;BMP180;65216;51.090;-115.352;2023-07-16T08:10:15;87351.80;;;21.70
76394;BMP180;65216;51.090;-115.352;2023-07-16T08:12:41;87353.80;;;21.70
76394;BMP180;65216;51.090;-115.352;2023-07-16T08:15:11;87353.40;;;21.70
76394;BMP180;65216;51.090;-115.352;2023-07-16T08:17:45;87362.20;;;21.70
76394;BMP180;65216;51.090;-115.352;2023-07-16T08:20:12;87360.20;;;21.70
76394;BMP180;65216;51.090;-115.352;2023-07-16T08:22:39;87360.80;;;21.70
76394;BMP180;65216;51.090;-115.352;2023-07-16T08:25:08;87362.00;;;21.70
76394;BMP180;65216;51.090;-115.352;2023-07-16T08:27:35;87364.40;;;21.70
76394;BMP180;65216;51.090;-115.352;2023-07-16T08:30:02;87364.80;;;21.70
76394;BMP180;65216;51.090;-115.352;2023-07-16T08:32:29;87373.00;;;21.70
76394;BMP180;65216;51.090;-115.352;2023-07-16T08:34:59;87364.80;;;21.70
76394;BMP180;65216;51.090;-115.352;2023-07-16T08:37:26;87370.80;;;21.70
76394;BMP180;65216;51.090;-115.352;2023-07-16T08:39:53;87374.80;;;21.70
76394;BMP180;65216;51.090;-115.352;2023-07-16T08:42:20;87381.00;;;21.70
76394;BMP180;65216;51.090;-115.352;2023-07-16T08:44:50;87379.60;;;21.70
76394;BMP180;65216;51.090;-115.352;2023-07-16T08:47:18;87379.80;;;21.70
76394;BMP180;65216;51.090;-115.352;2023-07-16T08:49:57;87378.80;;;21.70
76394;BMP180;65216;51.090;-115.352;2023-07-16T08:52:27;87380.00;;;21.70
76394;BMP180;65216;51.090;-115.352;2023-07-16T08:54:55;87382.60;;;21.70
76394;BMP180;65216;51.090;-115.352;2023-07-16T08:57:23;87380.80;;;21.70
76394;BMP180;65216;51.090;-115.352;2023-07-16T08:59:51;87380.80;;;21.70
76394;BMP180;65216;51.090;-115.352;2023-07-16T09:02:19;87383.60;;;21.70
76394;BMP180;65216;51.090;-115.352;2023-07-16T09:04:50;87375.60;;;21.70
76394;BMP180;65216;51.090;-115.352;2023-07-16T09:07:21;87377.40;;;21.70
76394;BMP180;65216;51.090;-115.352;2023-07-16T09:10:00;87379.00;;;21.70
76394;BMP180;65216;51.090;-115.352;2023-07-16T09:12:28;87375.20;;;21.70
76394;BMP180;65216;51.090;-115.352;2023-07-16T09:14:56;87372.80;;;21.70
76394;BMP180;65216;51.090;-115.352;2023-07-16T09:17:24;87367.40;;;21.70
76394;BMP180;65216;51.090;-115.352;2023-07-16T09:19:52;87368.00;;;21.70
76394;BMP180;65216;51.090;-115.352;2023-07-16T09:22:20;87360.60;;;21.70
76394;BMP180;65216;51.090;-115.352;2023-07-16T09:24:48;87364.80;;;21.70
76394;BMP180;65216;51.090;-115.352;2023-07-16T09:27:15;87365.20;;;21.70
76394;BMP180;65216;51.090;-115.352;2023-07-16T09:29:42;87362.40;;;21.70
76394;BMP180;65216;51.090;-115.352;2023-07-16T09:32:10;87363.20;;;21.68
76394;BMP180;65216;51.090;-115.352;2023-07-16T09:34:37;87361.60;;;21.62
76394;BMP180;65216;51.090;-115.352;2023-07-16T09:37:09;87361.20;;;21.62
76394;BMP180;65216;51.090;-115.352;2023-07-16T09:39:37;87359.60;;;21.60
76394;BMP180;65216;51.090;-115.352;2023-07-16T09:42:05;87358.80;;;21.62
76394;BMP180;65216;51.090;-115.352;2023-07-16T09:44:33;87356.20;;;21.60
76394;BMP180;65216;51.090;-115.352;2023-07-16T09:47:00;87357.60;;;21.60
76394;BMP180;65216;51.090;-115.352;2023-07-16T09:49:30;87354.80;;;21.60
76394;BMP180;65216;51.090;-115.352;2023-07-16T09:51:58;87353.60;;;21.60
76394;BMP180;65216;51.090;-115.352;2023-07-16T09:54:35;87348.20;;;21.60
76394;BMP180;65216;51.090;-115.352;2023-07-16T09:57:06;87346.60;;;21.60
76394;BMP180;65216;51.090;-115.352;2023-07-16T09:59:34;87344.40;;;21.60
76394;BMP180;65216;51.090;-115.352;2023-07-16T10:02:02;87351.40;;;21.60
76394;BMP180;65216;51.090;-115.352;2023-07-16T10:04:38;87350.00;;;21.60
76394;BMP180;65216;51.090;-115.352;2023-07-16T10:07:23;87347.00;;;21.60
76394;BMP180;65216;51.090;-115.352;2023-07-16T10:09:57;87348.60;;;21.60
76394;BMP180;65216;51.090;-115.352;2023-07-16T10:12:28;87352.80;;;21.60
76394;BMP180;65216;51.090;-115.352;2023-07-16T10:14:56;87352.00;;;21.60
76394;BMP180;65216;51.090;-115.352;2023-07-16T10:17:29;87356.20;;;21.60
76394;BMP180;65216;51.090;-115.352;2023-07-16T10:19:59;87356.40;;;21.60
76394;BMP180;65216;51.090;-115.352;2023-07-16T10:27:47;87354.20;;;21.60
76394;BMP180;65216;51.090;-115.352;2023-07-16T10:30:17;87354.20;;;21.60
76394;BMP180;65216;51.090;-115.352;2023-07-16T10:32:44;87360.20;;;21.60
76394;BMP180;65216;51.090;-115.352;2023-07-16T10:35:13;87357.00;;;21.60
76394;BMP180;65216;51.090;-115.352;2023-07-16T10:37:40;87359.00;;;21.58
76394;BMP180;65216;51.090;-115.352;2023-07-16T10:40:12;87355.60;;;21.60
76394;BMP180;65216;51.090;-115.352;2023-07-16T10:42:44;87355.60;;;21.58
76394;BMP180;65216;51.090;-115.352;2023-07-16T10:45:13;87351.60;;;21.58
76394;BMP180;65216;51.090;-115.352;2023-07-16T10:47:54;87350.60;;;21.56
76394;BMP180;65216;51.090;-115.352;2023-07-16T10:50:22;87357.80;;;21.54
76394;BMP180;65216;51.090;-115.352;2023-07-16T10:52:57;87355.40;;;21.50
76394;BMP180;65216;51.090;-115.352;2023-07-16T10:55:28;87355.40;;;21.50
76394;BMP180;65216;51.090;-115.352;2023-07-16T10:57:56;87353.40;;;21.50
76394;BMP180;65216;51.090;-115.352;2023-07-16T11:00:23;87355.20;;;21.50
76394;BMP180;65216;51.090;-115.352;2023-07-16T11:02:54;87355.40;;;21.50
76394;BMP180;65216;51.090;-115.352;2023-07-16T11:05:23;87355.00;;;21.50
76394;BMP180;65216;51.090;-115.352;2023-07-16T11:07:50;87355.40;;;21.50
76394;BMP180;65216;51.090;-115.352;2023-07-16T11:10:18;87355.80;;;21.50
76394;BMP180;65216;51.090;-115.352;2023-07-16T11:12:51;87356.80;;;21.50
76394;BMP180;65216;51.090;-115.352;2023-07-16T11:15:29;87355.80;;;21.50
76394;BMP180;65216;51.090;-115.352;2023-07-16T11:17:56;87358.00;;;21.50
76394;BMP180;65216;51.090;-115.352;2023-07-16T11:20:26;87355.80;;;21.40
76394;BMP180;65216;51.090;-115.352;2023-07-16T11:22:53;87358.00;;;21.40
76394;BMP180;65216;51.090;-115.352;2023-07-16T11:25:27;87360.20;;;21.40
76394;BMP180;65216;51.090;-115.352;2023-07-16T11:28:02;87357.60;;;21.40
76394;BMP180;65216;51.090;-115.352;2023-07-16T11:30:29;87356.80;;;21.40
76394;BMP180;65216;51.090;-115.352;2023-07-16T11:33:01;87360.00;;;21.40
76394;BMP180;65216;51.090;-115.352;2023-07-16T11:35:29;87365.40;;;21.40
76394;BMP180;65216;51.090;-115.352;2023-07-16T11:37:56;87368.40;;;21.40
76394;BMP180;65216;51.090;-115.352;2023-07-16T11:40:23;87365.80;;;21.40
76394;BMP180;65216;51.090;-115.352;2023-07-16T11:42:51;87362.00;;;21.38
76394;BMP180;65216;51.090;-115.352;2023-07-16T11:45:24;87366.20;;;21.32
76394;BMP180;65216;51.090;-115.352;2023-07-16T11:47:56;87368.80;;;21.30
76394;BMP180;65216;51.090;-115.352;2023-07-16T11:50:26;87364.60;;;21.30
76394;BMP180;65216;51.090;-115.352;2023-07-16T11:52:55;87365.80;;;21.30
76394;BMP180;65216;51.090;-115.352;2023-07-16T11:55:22;87361.80;;;21.30
76394;BMP180;65216;51.090;-115.352;2023-07-16T11:57:50;87359.60;;;21.30
76394;BMP180;65216;51.090;-115.352;2023-07-16T12:00:18;87360.60;;;21.24
76394;BMP180;65216;51.090;-115.352;2023-07-16T12:02:45;87358.00;;;21.20
76394;BMP180;65216;51.090;-115.352;2023-07-16T12:05:24;87359.00;;;21.20
76394;BMP180;65216;51.090;-115.352;2023-07-16T12:07:53;87359.60;;;21.20
76394;BMP180;65216;51.090;-115.352;2023-07-16T12:10:20;87355.40;;;21.20
76394;BMP180;65216;51.090;-115.352;2023-07-16T12:12:47;87357.60;;;21.20
76394;BMP180;65216;51.090;-115.352;2023-07-16T12:15:14;87356.20;;;21.20
76394;BMP180;65216;51.090;-115.352;2023-07-16T12:17:41;87352.60;;;21.20
76394;BMP180;65216;51.090;-115.352;2023-07-16T12:20:08;87355.80;;;21.20
76394;BMP180;65216;51.090;-115.352;2023-07-16T12:22:38;87353.00;;;21.20
76394;BMP180;65216;51.090;-115.352;2023-07-16T12:25:05;87347.40;;;21.20
76394;BMP180;65216;51.090;-115.352;2023-07-16T12:27:32;87353.80;;;21.20
76394;BMP180;65216;51.090;-115.352;2023-07-16T12:29:59;87353.40;;;21.20
76394;BMP180;65216;51.090;-115.352;2023-07-16T12:32:26;87358.80;;;21.14
76394;BMP180;65216;51.090;-115.352;2023-07-16T12:34:56;87356.80;;;21.18
76394;BMP180;65216;51.090;-115.352;2023-07-16T12:37:27;87351.60;;;21.14
76394;BMP180;65216;51.090;-115.352;2023-07-16T12:39:54;87354.60;;;21.12
76394;BMP180;65216;51.090;-115.352;2023-07-16T12:42:21;87351.80;;;21.10
76394;BMP180;65216;51.090;-115.352;2023-07-16T12:44:48;87355.60;;;21.10
76394;BMP180;65216;51.090;-115.352;2023-07-16T12:47:16;87356.60;;;21.10
76394;BMP180;65216;51.090;-115.352;2023-07-16T12:49:43;87355.20;;;21.10
76394;BMP180;65216;51.090;-115.352;2023-07-16T12:52:10;87357.60;;;21.10
76394;BMP180;65216;51.090;-115.352;2023-07-16T12:54:37;87359.20;;;21.10
76394;BMP180;65216;51.090;-115.352;2023-07-16T12:57:05;87353.60;;;21.10
76394;BMP180;65216;51.090;-115.352;2023-07-16T12:59:34;87356.40;;;21.10
76394;BMP180;65216;51.090;-115.352;2023-07-16T13:02:01;87359.00;;;21.10
76394;BMP180;65216;51.090;-115.352;2023-07-16T13:04:28;87358.60;;;21.10
76394;BMP180;65216;51.090;-115.352;2023-07-16T13:06:55;87373.20;;;21.10
76394;BMP180;65216;51.090;-115.352;2023-07-16T13:09:22;87356.40;;;21.10
76394;BMP180;65216;51.090;-115.352;2023-07-16T13:11:49;87357.80;;;21.10
76394;BMP180;65216;51.090;-115.352;2023-07-16T13:14:17;87360.20;;;21.10
76394;BMP180;65216;51.090;-115.352;2023-07-16T13:16:44;87355.60;;;21.10
76394;BMP180;65216;51.090;-115.352;2023-07-16T13:19:11;87358.40;;;21.10
76394;BMP180;65216;51.090;-115.352;2023-07-16T13:21:38;87356.80;;;21.10
76394;BMP180;65216;51.090;-115.352;2023-07-16T13:24:08;87357.60;;;21.10
76394;BMP180;65216;51.090;-115.352;2023-07-16T13:26:38;87360.20;;;21.10
76394;BMP180;65216;51.090;-115.352;2023-07-16T13:29:05;87361.20;;;21.10
76394;BMP180;65216;51.090;-115.352;2023-07-16T13:31:32;87360.00;;;21.10
76394;BMP180;65216;51.090;-115.352;2023-07-16T13:33:58;87365.20;;;21.10
76394;BMP180;65216;51.090;-115.352;2023-07-16T13:36:26;87366.00;;;21.10
76394;BMP180;65216;51.090;-115.352;2023-07-16T13:38:52;87367.60;;;21.10
76394;BMP180;65216;51.090;-115.352;2023-07-16T13:41:20;87362.20;;;21.10
76394;BMP180;65216;51.090;-115.352;2023-07-16T13:43:47;87353.80;;;21.10
76394;BMP180;65216;51.090;-115.352;2023-07-16T13:46:14;87354.80;;;21.10
76394;BMP180;65216;51.090;-115.352;2023-07-16T13:48:41;87351.40;;;21.10
76394;BMP180;65216;51.090;-115.352;2023-07-16T13:51:08;87354.20;;;21.10
76394;BMP180;65216;51.090;-115.352;2023-07-16T13:53:34;87353.20;;;21.10